Time;durP1;ratioP1;P1;durP2;ratioP2;P2;SDS_P1;SDS_P2;PMS_P1;PMS_P2;Temp;Humidity;BMP_temperature;BMP_pressure;BME280_temperature;BME280_humidity;BME280_pressure;Samples;Min_cycle;Max_cycle;Signal;HPM_P1;HPM_P2
2022/08/14 00:00:41;;;;;;;;;;;;;;;27.27;41.28;100848.47;7289976;19;152412;-61
2022/08/14 00:03:18;;;;;;;;;;;;;;;27.27;41.31;100848.47;7281140;19;154942;-62
2022/08/14 00:05:55;;;;;;;;;;;;;;;27.27;41.21;100837.13;7281982;19;154517;-62
2022/08/14 00:08:26;;;;;;;;;;;;;;;27.26;41.61;100837.47;7284226;19;152699;-62
2022/08/14 00:11:10;;;;;;;;;;;;;;;27.26;41.61;100834.66;7282977;19;153386;-62
2022/08/14 00:13:38;;;;;;;;;;;;;;;27.28;41.44;100832.28;7283378;19;151968;-62
2022/08/14 00:16:06;;;;;;;;;;;;;;;27.27;41.67;100836.31;7283720;19;153128;-61
2022/08/14 00:18:33;;;;;;;;;;;;;;;27.28;41.47;100835.13;7282980;19;152571;-62
2022/08/14 00:21:20;;;;;;;;;;;;;;;27.27;41.52;100830.63;7280211;19;152543;-62
2022/08/14 00:23:56;;;;;;;;;;;;;;;27.28;41.52;100827.44;7286681;19;152529;-61
2022/08/14 00:26:27;;;;;;;;;;;;;;;27.26;41.72;100826.97;7281893;19;152971;-62
2022/08/14 00:28:54;;;;;;;;;;;;;;;27.26;42.15;100820.47;7281279;19;153458;-61
2022/08/14 00:31:22;;;;;;;;;;;;;;;27.27;42.08;100822.13;7282540;19;154083;-62
2022/08/14 00:34:09;;;;;;;;;;;;;;;27.27;42.01;100814.44;7278674;19;155581;-62
2022/08/14 00:36:56;;;;;;;;;;;;;;;27.27;41.95;100813.59;7283759;19;155055;-62
2022/08/14 00:39:24;;;;;;;;;;;;;;;27.27;42.00;100813.59;7278055;19;153151;-62
2022/08/14 00:41:51;;;;;;;;;;;;;;;27.26;42.38;100811.94;7279776;19;154497;-61
2022/08/14 00:44:19;;;;;;;;;;;;;;;27.26;42.29;100809.09;7277374;19;152983;-62
2022/08/14 00:46:58;;;;;;;;;;;;;;;27.29;42.21;100811.25;7288913;19;153674;-62
2022/08/14 00:49:27;;;;;;;;;;;;;;;27.28;42.35;100809.59;7276844;19;153769;-62
2022/08/14 00:51:56;;;;;;;;;;;;;;;27.26;42.21;100801.44;7277997;19;154206;-62
2022/08/14 00:54:23;;;;;;;;;;;;;;;27.25;42.44;100801.81;7277617;19;152002;-62
2022/08/14 00:56:51;;;;;;;;;;;;;;;27.29;42.60;100803.56;7283246;19;153611;-61
2022/08/14 00:59:22;;;;;;;;;;;;;;;27.27;42.43;100791.75;7280947;19;153462;-62
2022/08/14 01:01:54;;;;;;;;;;;;;;;27.28;42.39;100795.41;7280205;19;151834;-62
2022/08/14 01:04:24;;;;;;;;;;;;;;;27.28;42.41;100793.41;7276922;19;153100;-62
2022/08/14 01:07:19;;;;;;;;;;;;;;;27.30;42.35;100791.00;7282561;19;154137;-61
2022/08/14 01:09:51;;;;;;;;;;;;;;;27.29;42.41;100789.38;7290416;19;152199;-62
2022/08/14 01:12:18;;;;;;;;;;;;;;;27.29;42.73;100789.38;7282980;19;153949;-62
2022/08/14 01:15:06;;;;;;;;;;;;;;;27.27;42.89;100788.06;7282366;19;153211;-62
2022/08/14 01:23:11;;;;;;;;;;;;;;;27.28;42.76;100781.22;7283288;19;152202;-62
2022/08/14 01:25:45;;;;;;;;;;;;;;;27.26;42.78;100778.72;7280643;19;152051;-62
2022/08/14 01:28:12;;;;;;;;;;;;;;;27.26;43.04;100778.72;7281994;19;153166;-62
2022/08/14 01:30:59;;;;;;;;;;;;;;;27.24;42.98;100783.13;7281818;19;152018;-61
2022/08/14 01:33:28;;;;;;;;;;;;;;;27.25;43.20;100773.44;7288589;19;153142;-62
2022/08/14 01:35:59;;;;;;;;;;;;;;;27.23;43.12;100782.28;7278973;19;152582;-61
2022/08/14 01:38:34;;;;;;;;;;;;;;;27.26;43.12;100780.75;7282807;19;152646;-61
2022/08/14 01:41:07;;;;;;;;;;;;;;;27.24;42.98;100778.28;7278907;19;152355;-62
2022/08/14 01:43:43;;;;;;;;;;;;;;;27.23;43.23;100775.78;7282814;19;153161;-62
2022/08/14 01:46:23;;;;;;;;;;;;;;;27.25;42.92;100762.09;7283393;19;153058;-61
2022/08/14 01:48:54;;;;;;;;;;;;;;;27.28;42.90;100758.53;7277187;19;155255;-62
2022/08/14 01:51:23;;;;;;;;;;;;;;;27.25;43.31;100762.09;7280605;19;152096;-61
2022/08/14 01:53:52;;;;;;;;;;;;;;;27.25;43.19;100759.25;7281809;19;153440;-62
2022/08/14 01:56:21;;;;;;;;;;;;;;;27.26;42.98;100755.19;7293813;19;153451;-62
2022/08/14 01:58:49;;;;;;;;;;;;;;;27.24;42.79;100755.59;7286198;19;155772;-62
2022/08/14 02:01:23;;;;;;;;;;;;;;;27.23;43.25;100753.09;7287765;19;153616;-61
2022/08/14 02:03:52;;;;;;;;;;;;;;;27.22;43.17;100745.75;7284403;19;152869;-62
2022/08/14 02:06:25;;;;;;;;;;;;;;;27.24;43.19;100740.56;7289117;19;153112;-61
2022/08/14 02:09:01;;;;;;;;;;;;;;;27.25;42.56;100748.72;7286668;19;152724;-62
2022/08/14 02:11:42;;;;;;;;;;;;;;;27.26;42.71;100729.66;7288577;19;153180;-62
2022/08/14 02:14:20;;;;;;;;;;;;;;;27.26;42.62;100730.50;7287245;19;152181;-62
2022/08/14 02:16:57;;;;;;;;;;;;;;;27.22;42.89;100729.56;7295047;19;153978;-62
2022/08/14 02:19:26;;;;;;;;;;;;;;;27.24;42.93;100726.38;7284963;19;152417;-62
2022/08/14 02:21:58;;;;;;;;;;;;;;;27.24;42.54;100727.22;7286143;19;153183;-61
2022/08/14 02:24:30;;;;;;;;;;;;;;;27.25;42.82;100720.34;7287994;19;152021;-62
2022/08/14 02:27:05;;;;;;;;;;;;;;;27.23;42.37;100713.38;7287381;19;153482;-62
2022/08/14 02:29:55;;;;;;;;;;;;;;;27.22;42.41;100717.38;7280182;19;155507;-62
2022/08/14 02:32:26;;;;;;;;;;;;;;;27.22;42.52;100703.22;7288613;19;152881;-61
2022/08/14 02:35:16;;;;;;;;;;;;;;;27.23;42.41;100707.69;7284944;19;152536;-62
2022/08/14 02:37:47;;;;;;;;;;;;;;;27.22;42.44;100712.53;7287178;19;153733;-62
2022/08/14 02:40:18;;;;;;;;;;;;;;;27.18;42.56;100707.94;7294440;19;152437;-62
2022/08/14 02:42:45;;;;;;;;;;;;;;;27.18;42.67;100699.44;7282144;19;153399;-62
2022/08/14 02:45:23;;;;;;;;;;;;;;;27.19;42.50;100706.78;7287434;19;152644;-61
2022/08/14 02:48:06;;;;;;;;;;;;;;;27.20;42.71;100700.75;7287085;19;153349;-62
2022/08/14 02:50:53;;;;;;;;;;;;;;;27.18;42.46;100707.94;7282700;19;154867;-62
2022/08/14 02:53:20;;;;;;;;;;;;;;;27.15;42.86;100706.69;7287461;19;152084;-62
2022/08/14 02:55:47;;;;;;;;;;;;;;;27.14;42.89;100709.84;7286573;19;152741;-62
2022/08/14 02:58:14;;;;;;;;;;;;;;;27.14;42.57;100704.19;7287299;19;153293;-62
2022/08/14 03:00:56;;;;;;;;;;;;;;;27.13;42.83;100708.19;7286430;19;152264;-62
2022/08/14 03:03:24;;;;;;;;;;;;;;;27.15;42.68;100703.00;7292157;19;152011;-62
2022/08/14 03:05:54;;;;;;;;;;;;;;;27.14;42.56;100709.84;7282424;19;152839;-60
2022/08/14 03:08:21;;;;;;;;;;;;;;;27.12;42.50;100709.41;7285597;19;153169;-61
2022/08/14 03:10:50;;;;;;;;;;;;;;;27.12;42.72;100704.53;7286397;19;154225;-61
2022/08/14 03:13:22;;;;;;;;;;;;;;;27.14;42.67;100716.38;7286632;19;151574;-61
2022/08/14 03:15:52;;;;;;;;;;;;;;;27.13;42.54;100705.38;7286709;19;152935;-61
2022/08/14 03:18:22;;;;;;;;;;;;;;;27.14;42.67;100701.34;7285415;19;154920;-61
2022/08/14 03:21:02;;;;;;;;;;;;;;;27.13;42.75;100702.53;7283110;19;152696;-61
2022/08/14 03:23:33;;;;;;;;;;;;;;;27.11;42.57;100705.75;7286489;19;153104;-61
2022/08/14 03:26:05;;;;;;;;;;;;;;;27.10;42.57;100704.09;7292512;19;154244;-61
2022/08/14 03:28:33;;;;;;;;;;;;;;;27.13;42.43;100705.38;7287302;19;153173;-61
2022/08/14 03:31:03;;;;;;;;;;;;;;;27.15;42.25;100706.69;7284377;19;154400;-61
2022/08/14 03:33:36;;;;;;;;;;;;;;;27.12;42.68;100706.56;7287439;19;153677;-61
2022/08/14 03:36:11;;;;;;;;;;;;;;;27.11;42.62;100704.91;7284342;19;152855;-61
2022/08/14 03:38:58;;;;;;;;;;;;;;;27.11;42.72;100707.75;7285656;19;155483;-61
2022/08/14 03:41:46;;;;;;;;;;;;;;;27.10;42.59;100695.56;7285364;19;152114;-61
2022/08/14 03:44:13;;;;;;;;;;;;;;;27.11;42.67;100702.09;7282602;19;152603;-61
2022/08/14 03:47:00;;;;;;;;;;;;;;;27.08;42.80;100694.28;7282860;19;155154;-61
2022/08/14 03:49:28;;;;;;;;;;;;;;;27.11;42.61;100688.72;7289598;19;152232;-61
2022/08/14 03:52:03;;;;;;;;;;;;;;;27.07;42.80;100689.81;7285413;19;153324;-61
2022/08/14 03:54:50;;;;;;;;;;;;;;;27.06;42.94;100691.81;7264211;19;153661;-61
2022/08/14 03:57:19;;;;;;;;;;;;;;;27.08;42.68;100674.41;7278386;19;153604;-61
2022/08/14 03:59:49;;;;;;;;;;;;;;;27.04;42.58;100679.16;7284354;19;153650;-61
2022/08/14 04:02:16;;;;;;;;;;;;;;;27.06;42.87;100679.63;7282845;19;154490;-61
2022/08/14 04:05:06;;;;;;;;;;;;;;;27.05;43.10;100675.97;7279801;19;155060;-61
2022/08/14 04:07:41;;;;;;;;;;;;;;;27.07;43.09;100681.28;7284056;19;153840;-61
2022/08/14 04:10:28;;;;;;;;;;;;;;;27.06;42.65;100679.63;7282258;19;154364;-61
2022/08/14 04:12:58;;;;;;;;;;;;;;;27.07;42.85;100676.44;7290266;19;153189;-61
2022/08/14 04:15:30;;;;;;;;;;;;;;;27.04;42.95;100664.97;7282780;19;152047;-61
2022/08/14 04:18:05;;;;;;;;;;;;;;;27.04;43.06;100665.81;7282044;19;153048;-61
2022/08/14 04:20:41;;;;;;;;;;;;;;;27.04;42.74;100659.31;7277216;19;152567;-61
2022/08/14 04:23:22;;;;;;;;;;;;;;;27.03;42.76;100654.84;7281117;19;152259;-61
2022/08/14 04:26:02;;;;;;;;;;;;;;;27.04;42.61;100654.47;7284010;19;152138;-61
2022/08/14 04:28:30;;;;;;;;;;;;;;;27.02;43.04;100647.50;7284668;19;153635;-61
2022/08/14 04:31:18;;;;;;;;;;;;;;;27.02;42.71;100641.84;7283951;19;152891;-61
2022/08/14 04:34:05;;;;;;;;;;;;;;;26.99;42.75;100646.22;7288435;19;154112;-61
2022/08/14 04:43:34;;;;;;;;;;;;;;;26.97;42.71;100638.06;7285796;19;152140;-61
2022/08/14 04:44:57;;;;;;;;;;;;;;;27.01;42.56;100628.84;7284605;19;152268;-61
2022/08/14 04:50:12;;;;;;;;;;;;;;;26.97;42.60;100628.75;7279632;19;153752;-61
2022/08/14 04:52:39;;;;;;;;;;;;;;;26.98;42.37;100627.56;7283603;19;152140;-61
2022/08/14 04:55:07;;;;;;;;;;;;;;;26.99;42.28;100632.03;7283489;19;152727;-61
2022/08/14 04:57:37;;;;;;;;;;;;;;;26.97;42.60;100623.06;7291575;19;155714;-61
2022/08/14 05:00:05;;;;;;;;;;;;;;;26.96;42.64;100621.41;7284199;19;153148;-61
2022/08/14 05:02:41;;;;;;;;;;;;;;;26.97;42.25;100637.25;7281268;19;153288;-61
2022/08/14 05:05:09;;;;;;;;;;;;;;;26.93;42.54;100634.31;7277822;19;152374;-61
2022/08/14 05:07:36;;;;;;;;;;;;;;;26.93;42.57;100630.66;7284181;19;152597;-61
2022/08/14 05:10:24;;;;;;;;;;;;;;;26.93;42.72;100628.66;7281490;19;152482;-61
2022/08/14 05:12:57;;;;;;;;;;;;;;;26.97;42.35;100621.06;7283510;19;152099;-61
2022/08/14 05:15:45;;;;;;;;;;;;;;;26.93;42.40;100614.47;7282934;19;154381;-61
2022/08/14 05:18:15;;;;;;;;;;;;;;;26.91;42.50;100622.50;7283380;19;153689;-61
2022/08/14 05:21:06;;;;;;;;;;;;;;;26.93;42.44;100622.97;7287703;19;152109;-61
2022/08/14 05:23:53;;;;;;;;;;;;;;;26.93;42.48;100624.97;7280482;19;155717;-61
2022/08/14 05:26:20;;;;;;;;;;;;;;;26.88;42.23;100623.22;7283873;19;151770;-61
2022/08/14 05:28:47;;;;;;;;;;;;;;;26.90;42.40;100620.84;7283153;19;154101;-61
2022/08/14 05:31:16;;;;;;;;;;;;;;;26.89;42.21;100624.84;7280094;19;152216;-61
2022/08/14 05:33:46;;;;;;;;;;;;;;;26.90;42.39;100631.34;7281410;19;153037;-61
2022/08/14 05:36:22;;;;;;;;;;;;;;;26.89;41.91;100629.72;7281940;19;153481;-61
2022/08/14 05:38:49;;;;;;;;;;;;;;;26.89;42.21;100629.72;7281937;19;152957;-61
2022/08/14 05:41:18;;;;;;;;;;;;;;;26.87;41.93;100626.41;7282899;19;151782;-61
2022/08/14 05:43:47;;;;;;;;;;;;;;;26.86;42.21;100631.25;7286115;19;153481;-61
2022/08/14 05:46:23;;;;;;;;;;;;;;;26.87;42.20;100629.25;7283843;19;152662;-61
2022/08/14 05:48:52;;;;;;;;;;;;;;;26.86;42.03;100628.41;7278130;19;153578;-61
2022/08/14 05:51:19;;;;;;;;;;;;;;;26.86;41.94;100633.25;7280566;19;153353;-61
2022/08/14 05:53:46;;;;;;;;;;;;;;;26.89;41.80;100630.53;7281083;19;153044;-61
2022/08/14 05:56:33;;;;;;;;;;;;;;;26.85;41.83;100629.59;7283445;19;156464;-61
2022/08/14 05:59:02;;;;;;;;;;;;;;;26.85;41.95;100626.75;7280670;19;154282;-61
2022/08/14 06:01:29;;;;;;;;;;;;;;;26.86;42.14;100636.09;7282685;19;153263;-61
2022/08/14 06:03:57;;;;;;;;;;;;;;;26.87;41.66;100632.09;7276614;19;153672;-61
2022/08/14 06:06:24;;;;;;;;;;;;;;;26.83;41.69;100629.13;7288102;19;154487;-61
2022/08/14 06:08:51;;;;;;;;;;;;;;;26.81;41.88;100631.47;7280859;19;154034;-61
2022/08/14 06:11:19;;;;;;;;;;;;;;;26.83;41.70;100622.63;7280781;19;154155;-61
2022/08/14 06:13:57;;;;;;;;;;;;;;;26.84;41.91;100618.59;7281802;19;151614;-61
2022/08/14 06:16:24;;;;;;;;;;;;;;;26.81;42.01;100630.63;7281478;19;153607;-61
2022/08/14 06:18:51;;;;;;;;;;;;;;;26.82;41.63;100632.28;7278282;19;153218;-61
2022/08/14 06:21:21;;;;;;;;;;;;;;;26.81;41.89;100627.81;7277761;19;152212;-61
2022/08/14 06:23:48;;;;;;;;;;;;;;;26.80;41.59;100629.00;7279407;19;154118;-61
2022/08/14 06:26:15;;;;;;;;;;;;;;;26.82;41.88;100623.78;7280329;19;153056;-61
2022/08/14 06:28:46;;;;;;;;;;;;;;;26.79;41.77;100625.34;7288222;19;151984;-61
2022/08/14 06:31:17;;;;;;;;;;;;;;;26.82;41.63;100633.13;7280006;19;154134;-61
2022/08/14 06:33:45;;;;;;;;;;;;;;;26.82;41.91;100635.13;7279891;19;152553;-61
2022/08/14 06:36:32;;;;;;;;;;;;;;;26.78;41.83;100637.88;7280517;19;155790;-61
2022/08/14 06:38:59;;;;;;;;;;;;;;;26.77;41.51;100627.69;7279555;19;153285;-61
2022/08/14 06:41:27;;;;;;;;;;;;;;;26.79;41.76;100628.19;7279588;19;151893;-61
2022/08/14 06:44:14;;;;;;;;;;;;;;;26.80;41.77;100626.19;7281863;19;155827;-61
2022/08/14 06:46:41;;;;;;;;;;;;;;;26.80;41.93;100626.19;7287195;19;154700;-61
2022/08/14 06:49:14;;;;;;;;;;;;;;;26.80;42.00;100626.19;7290916;19;152458;-61
2022/08/14 06:51:45;;;;;;;;;;;;;;;26.78;41.81;100622.84;7286856;19;153198;-61
2022/08/14 06:54:15;;;;;;;;;;;;;;;26.79;42.04;100625.34;7284908;19;151903;-61
2022/08/14 06:56:41;;;;;;;;;;;;;;;26.77;41.78;100629.72;7288223;19;153422;-61
2022/08/14 06:59:09;;;;;;;;;;;;;;;26.75;42.00;100627.25;7285876;19;154058;-61
2022/08/14 07:07:24;;;;;;;;;;;;;;;26.78;42.22;100622.84;7286765;19;154091;-61
2022/08/14 07:09:54;;;;;;;;;;;;;;;26.78;42.04;100629.34;7287227;19;152256;-61
2022/08/14 07:12:20;;;;;;;;;;;;;;;26.78;41.98;100622.84;7293215;19;152963;-61
2022/08/14 07:15:07;;;;;;;;;;;;;;;26.78;41.99;100612.34;7285585;19;152697;-61
2022/08/14 07:17:43;;;;;;;;;;;;;;;26.77;42.30;100627.69;7287496;19;153588;-61
2022/08/14 07:20:10;;;;;;;;;;;;;;;26.74;42.23;100613.44;7281944;19;153390;-61
2022/08/14 07:22:39;;;;;;;;;;;;;;;26.74;42.29;100614.25;7286926;19;153006;-61
2022/08/14 07:25:22;;;;;;;;;;;;;;;26.79;42.00;100622.50;7286489;19;153386;-61
2022/08/14 07:28:18;;;;;;;;;;;;;;;26.78;42.33;100612.34;7285625;19;154397;-61
2022/08/14 07:30:46;;;;;;;;;;;;;;;26.81;42.25;100611.63;7286453;19;152291;-61
2022/08/14 07:33:17;;;;;;;;;;;;;;;26.79;42.43;100605.50;7285519;19;153126;-61
2022/08/14 07:35:50;;;;;;;;;;;;;;;26.79;42.52;100610.34;7290429;19;153466;-61
2022/08/14 07:38:26;;;;;;;;;;;;;;;26.75;42.51;100598.91;7287088;19;152260;-61
2022/08/14 07:41:01;;;;;;;;;;;;;;;26.76;42.23;100596.88;7283574;19;153886;-61
2022/08/14 07:43:28;;;;;;;;;;;;;;;26.77;42.44;100599.34;7284868;19;152100;-61
2022/08/14 07:45:55;;;;;;;;;;;;;;;26.79;42.45;100599.84;7285677;19;153281;-61
2022/08/14 07:48:22;;;;;;;;;;;;;;;26.79;42.40;100599.00;7285492;19;153385;-61
2022/08/14 07:50:50;;;;;;;;;;;;;;;26.81;42.53;100594.63;7282328;19;152734;-61
2022/08/14 07:53:21;;;;;;;;;;;;;;;26.80;42.53;100592.16;7284860;19;152958;-61
2022/08/14 07:55:47;;;;;;;;;;;;;;;26.80;42.81;100589.31;7282364;19;154089;-61
2022/08/14 07:58:37;;;;;;;;;;;;;;;26.82;42.62;100581.25;7291708;19;152155;-61
2022/08/14 08:01:18;;;;;;;;;;;;;;;26.79;42.72;100587.66;7286036;19;153381;-61
2022/08/14 08:03:45;;;;;;;;;;;;;;;26.81;42.85;100583.28;7281040;19;152135;-61
2022/08/14 08:06:17;;;;;;;;;;;;;;;26.81;42.78;100586.09;7283870;19;153685;-61
2022/08/14 08:08:52;;;;;;;;;;;;;;;26.80;42.68;100583.66;7284107;19;154259;-61
2022/08/14 08:11:31;;;;;;;;;;;;;;;26.80;42.72;100587.28;7284667;19;152180;-61
2022/08/14 08:14:06;;;;;;;;;;;;;;;26.79;42.90;100571.47;7283684;19;152536;-61
2022/08/14 08:16:43;;;;;;;;;;;;;;;26.80;42.84;100569.47;7284634;19;154076;-61
2022/08/14 08:19:11;;;;;;;;;;;;;;;26.83;42.54;100561.06;7281385;19;151795;-61
2022/08/14 08:21:40;;;;;;;;;;;;;;;26.82;42.72;100550.91;7292658;19;152599;-61
2022/08/14 08:24:09;;;;;;;;;;;;;;;26.83;42.94;100548.91;7280324;19;153654;-61
2022/08/14 08:26:37;;;;;;;;;;;;;;;26.83;42.74;100537.56;7285085;19;152464;-61
2022/08/14 08:29:05;;;;;;;;;;;;;;;26.82;42.76;100538.75;7283523;19;153920;-61
2022/08/14 08:31:32;;;;;;;;;;;;;;;26.82;43.02;100533.91;7285786;19;151669;-61
2022/08/14 08:34:04;;;;;;;;;;;;;;;26.82;42.95;100533.91;7282527;19;154047;-61
2022/08/14 08:36:38;;;;;;;;;;;;;;;26.83;42.71;100529.88;7282288;19;154348;-61
2022/08/14 08:39:07;;;;;;;;;;;;;;;26.84;42.59;100525.03;7283268;19;152477;-61
2022/08/14 08:41:46;;;;;;;;;;;;;;;26.84;42.52;100514.53;7285788;19;152895;-61
2022/08/14 08:44:18;;;;;;;;;;;;;;;26.85;42.78;100506.81;7284258;19;153656;-61
2022/08/14 08:47:04;;;;;;;;;;;;;;;26.85;42.31;100516.19;7283904;19;153475;-61
2022/08/14 08:49:41;;;;;;;;;;;;;;;26.87;42.34;100510.16;7279819;19;153963;-61
2022/08/14 08:52:24;;;;;;;;;;;;;;;26.87;42.90;100508.16;7283044;19;152687;-61
2022/08/14 08:54:56;;;;;;;;;;;;;;;26.87;42.31;100513.81;7284913;19;153204;-61
2022/08/14 08:57:24;;;;;;;;;;;;;;;26.89;42.63;100511.44;7282118;19;153941;-61
2022/08/14 08:59:51;;;;;;;;;;;;;;;26.86;42.80;100514.19;7282692;19;152364;-61
2022/08/14 09:02:21;;;;;;;;;;;;;;;26.87;43.11;100508.16;7283218;19;154244;-61
2022/08/14 09:05:00;;;;;;;;;;;;;;;26.89;42.89;100519.16;7282815;19;154459;-61
2022/08/14 09:07:27;;;;;;;;;;;;;;;26.87;42.90;100521.50;7284545;19;152951;-61
2022/08/14 09:09:55;;;;;;;;;;;;;;;26.88;43.26;100512.66;7280880;19;153309;-61
2022/08/14 09:12:27;;;;;;;;;;;;;;;26.92;42.98;100512.75;7281195;19;154466;-61
2022/08/14 09:15:08;;;;;;;;;;;;;;;26.91;42.81;100514.75;7284213;19;153061;-61
2022/08/14 09:17:38;;;;;;;;;;;;;;;26.92;43.40;100516.41;7283628;19;153568;-61
2022/08/14 09:20:07;;;;;;;;;;;;;;;26.91;43.22;100511.91;7280829;19;152566;-61
2022/08/14 09:22:38;;;;;;;;;;;;;;;26.93;43.39;100509.56;7284897;19;153875;-61
2022/08/14 09:25:13;;;;;;;;;;;;;;;26.94;43.34;100516.00;7278175;19;154202;-61
2022/08/14 09:27:40;;;;;;;;;;;;;;;26.93;43.46;100509.56;7291166;19;152597;-61
2022/08/14 09:30:08;;;;;;;;;;;;;;;26.95;42.98;100515.66;7279929;19;153286;-61
2022/08/14 09:33:01;;;;;;;;;;;;;;;26.95;43.66;100504.31;7282937;19;152141;-61
2022/08/14 09:35:43;;;;;;;;;;;;;;;26.97;43.54;100506.81;7280519;19;153438;-61
2022/08/14 09:38:24;;;;;;;;;;;;;;;26.95;43.14;100504.31;7282501;19;152999;-61
2022/08/14 09:41:12;;;;;;;;;;;;;;;26.98;43.27;100506.41;7282039;19;153403;-61
2022/08/14 09:43:56;;;;;;;;;;;;;;;26.97;43.69;100495.47;7281726;19;155508;-61
2022/08/14 09:46:26;;;;;;;;;;;;;;;26.98;43.63;100494.28;7280868;19;152648;-61
2022/08/14 09:48:59;;;;;;;;;;;;;;;26.99;43.85;100499.56;7279017;19;154238;-61
2022/08/14 09:51:28;;;;;;;;;;;;;;;27.02;44.00;100500.03;7289337;19;153661;-61
2022/08/14 09:54:09;;;;;;;;;;;;;;;27.01;43.81;100487.88;7281478;19;154842;-61
2022/08/14 09:56:49;;;;;;;;;;;;;;;27.05;43.59;100499.31;7282402;19;153650;-61
2022/08/14 09:59:26;;;;;;;;;;;;;;;27.06;43.33;100486.78;7278951;19;154879;-61
2022/08/14 10:01:57;;;;;;;;;;;;;;;27.11;43.98;100493.00;7282048;19;151751;-61
2022/08/14 10:04:25;;;;;;;;;;;;;;;27.13;43.88;100493.47;7276768;19;153077;-61
2022/08/14 10:07:05;;;;;;;;;;;;;;;27.15;43.37;100484.59;7280516;19;153662;-61
2022/08/14 10:09:45;;;;;;;;;;;;;;;27.17;43.35;100483.03;7281204;19;152313;-61
2022/08/14 10:12:47;;;;;;;;;;;;;;;27.20;43.14;100470.97;7281735;19;153818;-61
2022/08/14 10:15:21;;;;;;;;;;;;;;;27.24;43.04;100471.06;7287941;19;154246;-61
2022/08/14 10:17:51;;;;;;;;;;;;;;;27.27;43.02;100464.63;7286686;19;153925;-61
2022/08/14 10:20:33;;;;;;;;;;;;;;;27.29;43.20;100456.59;7284164;19;154346;-61
2022/08/14 10:23:12;;;;;;;;;;;;;;;27.29;43.22;100450.94;7288499;19;152237;-61
2022/08/14 10:25:49;;;;;;;;;;;;;;;27.32;43.66;100455.84;7287770;19;153560;-61
2022/08/14 10:28:17;;;;;;;;;;;;;;;27.35;43.86;100457.94;7286088;19;153531;-61
2022/08/14 10:31:14;;;;;;;;;;;;;;;27.38;43.67;100454.41;7287600;19;151662;-61
2022/08/14 10:33:41;;;;;;;;;;;;;;;27.38;43.66;100454.41;7288030;19;154390;-61
2022/08/14 10:36:08;;;;;;;;;;;;;;;27.40;43.83;100452.00;7283762;19;155008;-61
2022/08/14 10:38:57;;;;;;;;;;;;;;;27.40;43.66;100447.16;7296012;19;152077;-61
2022/08/14 10:41:34;;;;;;;;;;;;;;;27.44;43.98;100441.56;7286670;19;154217;-61
2022/08/14 10:44:20;;;;;;;;;;;;;;;27.45;43.11;100451.72;7285718;19;152109;-61
2022/08/14 10:46:52;;;;;;;;;;;;;;;27.45;43.40;100448.88;7290003;19;152769;-61
2022/08/14 10:49:46;;;;;;;;;;;;;;;27.50;43.50;100439.28;7283682;19;155059;-61
2022/08/14 10:52:24;;;;;;;;;;;;;;;27.51;43.64;100440.94;7287847;19;152396;-61
2022/08/14 10:54:51;;;;;;;;;;;;;;;27.51;43.66;100441.78;7288017;19;153198;-61
2022/08/14 10:57:23;;;;;;;;;;;;;;;27.55;43.57;100442.69;7286105;19;153443;-61
2022/08/14 10:59:54;;;;;;;;;;;;;;;27.55;42.82;100437.00;7292645;19;153872;-61
2022/08/14 11:02:27;;;;;;;;;;;;;;;27.54;43.33;100431.69;7285197;19;153990;-61
2022/08/14 11:05:17;;;;;;;;;;;;;;;27.56;43.07;100432.16;7281964;19;154862;-61
2022/08/14 11:07:49;;;;;;;;;;;;;;;27.58;42.97;100436.25;7287536;19;152254;-61
2022/08/14 11:10:21;;;;;;;;;;;;;;;27.56;42.65;100418.78;7283726;19;154815;-61
2022/08/14 11:12:52;;;;;;;;;;;;;;;27.59;43.05;100418.03;7288085;19;151901;-61
2022/08/14 11:15:21;;;;;;;;;;;;;;;27.58;43.11;100410.72;7287402;19;153276;-61
2022/08/14 11:17:49;;;;;;;;;;;;;;;27.62;43.02;100411.63;7286246;19;154304;-61
2022/08/14 11:20:18;;;;;;;;;;;;;;;27.61;42.98;100403.50;7282013;19;152442;-61
2022/08/14 11:22:53;;;;;;;;;;;;;;;27.64;43.07;100402.75;7294270;19;154367;-61
2022/08/14 11:25:30;;;;;;;;;;;;;;;27.63;43.02;100401.91;7284753;19;152124;-61
2022/08/14 11:28:10;;;;;;;;;;;;;;;27.67;43.16;100405.66;7284612;19;153823;-61
2022/08/14 11:30:47;;;;;;;;;;;;;;;27.67;43.22;100402.81;7285057;19;154410;-61
2022/08/14 11:33:23;;;;;;;;;;;;;;;27.69;43.68;100406.13;7285843;19;151849;-61
2022/08/14 11:35:49;;;;;;;;;;;;;;;27.68;43.27;100404.47;7283122;19;152585;-61
2022/08/14 11:38:18;;;;;;;;;;;;;;;27.68;43.10;100392.28;7285649;19;153253;-61
2022/08/14 11:40:45;;;;;;;;;;;;;;;27.70;43.21;100396.41;7284398;19;151925;-61
2022/08/14 11:43:13;;;;;;;;;;;;;;;27.70;42.61;100402.09;7287461;19;152898;-61
2022/08/14 11:45:44;;;;;;;;;;;;;;;27.73;43.08;100390.00;7289282;19;154290;-61
2022/08/14 11:48:17;;;;;;;;;;;;;;;27.71;42.85;100392.34;7285046;19;152518;-61
2022/08/14 11:51:11;;;;;;;;;;;;;;;27.69;42.61;100397.59;7281810;19;156469;-61
2022/08/14 11:53:39;;;;;;;;;;;;;;;27.71;42.15;100389.53;7285618;19;153541;-61
2022/08/14 11:56:08;;;;;;;;;;;;;;;27.73;41.91;100387.16;7285042;19;152489;-61
2022/08/14 11:58:36;;;;;;;;;;;;;;;27.74;42.20;100393.66;7283728;19;154137;-61
2022/08/14 12:01:05;;;;;;;;;;;;;;;27.75;42.23;100387.63;7285263;19;153353;-62
2022/08/14 12:03:35;;;;;;;;;;;;;;;27.75;42.28;100395.31;7283702;19;152838;-61
2022/08/14 12:06:18;;;;;;;;;;;;;;;27.76;41.87;100380.72;7281001;19;155991;-61
2022/08/14 12:09:03;;;;;;;;;;;;;;;27.77;41.89;100376.69;7293753;19;152779;-61
2022/08/14 12:11:38;;;;;;;;;;;;;;;27.77;41.11;100379.53;7284361;19;152764;-61
2022/08/14 12:14:12;;;;;;;;;;;;;;;27.75;40.73;100370.56;7284020;19;152189;-61
2022/08/14 12:17:06;;;;;;;;;;;;;;;27.75;41.54;100369.75;7284905;19;156705;-61
2022/08/14 12:19:45;;;;;;;;;;;;;;;27.76;40.98;100362.84;7280936;19;153912;-61
2022/08/14 12:22:39;;;;;;;;;;;;;;;27.76;41.56;100362.84;7283215;19;152741;-61
2022/08/14 12:25:12;;;;;;;;;;;;;;;27.76;40.81;100360.84;7280713;19;152466;-62
2022/08/14 12:27:41;;;;;;;;;;;;;;;27.77;40.74;100358.81;7283876;19;152947;-61
2022/08/14 12:30:28;;;;;;;;;;;;;;;27.77;40.38;100353.16;7284327;19;155505;-61
2022/08/14 12:33:04;;;;;;;;;;;;;;;27.79;40.60;100345.09;7290730;19;152798;-61
2022/08/14 12:35:36;;;;;;;;;;;;;;;27.79;40.52;100339.41;7282206;19;153066;-61
2022/08/14 12:38:07;;;;;;;;;;;;;;;27.78;40.54;100349.94;7284670;19;154805;-61
2022/08/14 12:40:46;;;;;;;;;;;;;;;27.77;40.31;100342.63;7281357;19;153295;-61
2022/08/14 12:43:14;;;;;;;;;;;;;;;27.76;40.68;100340.97;7283926;19;153226;-61
2022/08/14 12:45:48;;;;;;;;;;;;;;;27.77;39.95;100334.09;7281082;19;153163;-61
2022/08/14 12:48:15;;;;;;;;;;;;;;;27.77;39.89;100331.25;7284451;19;153366;-61
2022/08/14 12:50:57;;;;;;;;;;;;;;;27.77;39.88;100336.13;7271808;19;153190;-61
2022/08/14 12:53:32;;;;;;;;;;;;;;;27.77;40.63;100328.41;7272921;19;153540;-61
2022/08/14 12:56:06;;;;;;;;;;;;;;;27.76;40.45;100321.09;7283166;19;153890;-61
2022/08/14 12:58:57;;;;;;;;;;;;;;;27.79;41.72;100323.19;7283542;19;155836;-62
2022/08/14 13:01:28;;;;;;;;;;;;;;;27.79;40.95;100322.38;7283731;19;153949;-61
2022/08/14 13:04:28;;;;;;;;;;;;;;;27.80;40.67;100319.16;7278819;19;154516;-61
2022/08/14 13:06:55;;;;;;;;;;;;;;;27.80;41.05;100318.34;7282806;19;152359;-61
2022/08/14 13:09:26;;;;;;;;;;;;;;;27.79;40.37;100313.88;7282345;19;153692;-61
2022/08/14 13:12:04;;;;;;;;;;;;;;;27.80;40.50;100309.84;7282162;19;152404;-61
2022/08/14 13:14:51;;;;;;;;;;;;;;;27.81;40.49;100305.78;7281012;19;155791;-61
2022/08/14 13:17:19;;;;;;;;;;;;;;;27.80;40.77;100307.00;7289598;19;153845;-61
2022/08/14 13:19:46;;;;;;;;;;;;;;;27.80;40.49;100315.50;7279611;19;153620;-61
2022/08/14 13:22:16;;;;;;;;;;;;;;;27.80;40.88;100307.78;7279827;19;153884;-61